Ana Sayfa
METAR-TAF:

METAR-TAF

Havaalanları :

Şirak Havalimanı

Gümrü, Ermenistan

Enlem: 40-45-01N, Boylam: 043-51-33E, yükseklik: 1524 m

Güncel hava durumu gözlemi

Rapor saat 04:30 UTC de 39 dakika önce yapıldı.
Rüzgar batıdan 1 kt
Sıcaklık -2°C
Nem 80%
Basınç 1030 hPa
Görüş mesafesi: 9000 m
3600 ft yükseklikte parçalı çok bulutlu

METAR: UDSG 170430Z 26001KT 9000 BKN036 M02/M05 Q1030 R02/CLRD70 NOSIG

Saat: 09:09 (05:09 UTC)

Tahmin

Rapor saat 23:03 UTC de 6 saat ve 6 dakika önce yapıldı.
Ayın 17'si saat 00 UTC'den ayın 17'si saat 24 UTC'ye kadar geçerli Tahmin
Rüzgar değişken yönden 4 kt
Görüş mesafesi 10 km veya daha fazla
5000 ft yükseklikte az bulutlu
Geçici
ayın 17'si saat 00 UTC'den ayın 17'si saat 08 UTC'ye kadar
Görüş mesafesi: 5000 m
Pus

TAF: UDSG 162303Z 1700/1724 VRB04KT 9999 FEW050 TEMPO 1700/1708 5000 BR

4.000'den fazla havaalanı için hava durumu gözlemleri ve tahminleri (METAR ve TAF raporları).

Kullanılabilir istasyonlar harita üzerinde sarı ve kırmızı noktalarla gösterilir.

İstasyonun adını görmek için fareyi noktanın üzerinde gezdirin.

Sonrasında hava gözlem ve tahminlerini görmek için tıklayın.

Haritayı değiştirmek için: yaklaştırmak için siyah artı işaretli yeşil düğmeye ve uzaklaştırmak için de eksi işaretli düğmeye hızla tıklayın; bitişik haritalar için yeşil okları kullanın.


METAR-TAF: